sensor_id;sensor_type;location;lat;lon;timestamp;temperature;humidity
52555;DHT22;38455;52.710;6.502;2023-02-04T00:01:43;6.50;99.90
52555;DHT22;38455;52.710;6.502;2023-02-04T00:04:11;6.50;99.90
52555;DHT22;38455;52.710;6.502;2023-02-04T00:06:37;6.50;99.90
52555;DHT22;38455;52.710;6.502;2023-02-04T00:09:03;6.50;99.90
52555;DHT22;38455;52.710;6.502;2023-02-04T00:11:28;6.50;99.90
52555;DHT22;38455;52.710;6.502;2023-02-04T00:13:54;6.50;99.90
52555;DHT22;38455;52.710;6.502;2023-02-04T00:16:20;6.50;99.90
52555;DHT22;38455;52.710;6.502;2023-02-04T00:18:45;6.50;99.90
52555;DHT22;38455;52.710;6.502;2023-02-04T00:21:11;6.50;99.90
52555;DHT22;38455;52.710;6.502;2023-02-04T00:23:36;6.50;99.90
52555;DHT22;38455;52.710;6.502;2023-02-04T00:26:02;6.50;99.90
52555;DHT22;38455;52.710;6.502;2023-02-04T00:28:28;6.50;99.90
52555;DHT22;38455;52.710;6.502;2023-02-04T00:30:53;6.50;99.90
52555;DHT22;38455;52.710;6.502;2023-02-04T00:33:19;6.60;99.90
52555;DHT22;38455;52.710;6.502;2023-02-04T00:35:45;6.60;99.90
52555;DHT22;38455;52.710;6.502;2023-02-04T00:38:10;6.60;99.90
52555;DHT22;38455;52.710;6.502;2023-02-04T00:40:36;6.50;99.90
52555;DHT22;38455;52.710;6.502;2023-02-04T00:43:01;6.60;99.90
52555;DHT22;38455;52.710;6.502;2023-02-04T00:45:27;6.50;99.90
52555;DHT22;38455;52.710;6.502;2023-02-04T00:47:53;6.60;99.90
52555;DHT22;38455;52.710;6.502;2023-02-04T00:50:18;6.60;99.90
52555;DHT22;38455;52.710;6.502;2023-02-04T00:52:44;6.60;99.90
52555;DHT22;38455;52.710;6.502;2023-02-04T00:55:09;6.60;99.90
52555;DHT22;38455;52.710;6.502;2023-02-04T00:57:37;6.60;99.90
52555;DHT22;38455;52.710;6.502;2023-02-04T01:00:04;6.50;99.90
52555;DHT22;38455;52.710;6.502;2023-02-04T01:02:29;6.60;99.90
52555;DHT22;38455;52.710;6.502;2023-02-04T01:04:55;6.50;99.90
52555;DHT22;38455;52.710;6.502;2023-02-04T01:07:21;6.50;99.90
52555;DHT22;38455;52.710;6.502;2023-02-04T01:09:46;6.50;99.90
52555;DHT22;38455;52.710;6.502;2023-02-04T01:12:12;6.50;99.90
52555;DHT22;38455;52.710;6.502;2023-02-04T01:14:38;6.50;99.90
52555;DHT22;38455;52.710;6.502;2023-02-04T01:17:03;6.50;99.90
52555;DHT22;38455;52.710;6.502;2023-02-04T01:19:29;6.50;99.90
52555;DHT22;38455;52.710;6.502;2023-02-04T01:21:54;6.50;99.90
52555;DHT22;38455;52.710;6.502;2023-02-04T01:24:20;6.50;99.90
52555;DHT22;38455;52.710;6.502;2023-02-04T01:26:45;6.50;99.90
52555;DHT22;38455;52.710;6.502;2023-02-04T01:29:11;6.50;99.90
52555;DHT22;38455;52.710;6.502;2023-02-04T01:31:37;6.50;99.90
52555;DHT22;38455;52.710;6.502;2023-02-04T01:34:02;6.50;99.90
52555;DHT22;38455;52.710;6.502;2023-02-04T01:36:28;6.40;99.90
52555;DHT22;38455;52.710;6.502;2023-02-04T01:38:54;6.50;99.90
52555;DHT22;38455;52.710;6.502;2023-02-04T01:41:19;6.40;99.90
52555;DHT22;38455;52.710;6.502;2023-02-04T01:43:46;6.50;99.90
52555;DHT22;38455;52.710;6.502;2023-02-04T01:46:12;6.50;99.90
52555;DHT22;38455;52.710;6.502;2023-02-04T01:48:38;6.50;99.90
52555;DHT22;38455;52.710;6.502;2023-02-04T01:51:06;6.60;99.90
52555;DHT22;38455;52.710;6.502;2023-02-04T01:53:33;6.50;99.90
52555;DHT22;38455;52.710;6.502;2023-02-04T01:55:59;6.50;99.90
52555;DHT22;38455;52.710;6.502;2023-02-04T01:58:27;6.50;99.90
52555;DHT22;38455;52.710;6.502;2023-02-04T02:00:53;6.50;99.90
52555;DHT22;38455;52.710;6.502;2023-02-04T02:03:19;6.50;99.90
52555;DHT22;38455;52.710;6.502;2023-02-04T02:05:52;6.60;99.90
52555;DHT22;38455;52.710;6.502;2023-02-04T02:08:19;6.50;99.90
52555;DHT22;38455;52.710;6.502;2023-02-04T02:10:46;6.50;99.90
52555;DHT22;38455;52.710;6.502;2023-02-04T02:13:16;6.50;99.90
52555;DHT22;38455;52.710;6.502;2023-02-04T02:15:42;6.50;99.90
52555;DHT22;38455;52.710;6.502;2023-02-04T02:18:09;6.60;99.90
52555;DHT22;38455;52.710;6.502;2023-02-04T02:20:35;6.60;99.90
52555;DHT22;38455;52.710;6.502;2023-02-04T02:25:48;6.60;99.90
52555;DHT22;38455;52.710;6.502;2023-02-04T02:28:17;6.60;99.90
52555;DHT22;38455;52.710;6.502;2023-02-04T02:30:44;6.60;99.90
52555;DHT22;38455;52.710;6.502;2023-02-04T02:33:11;6.60;99.90
52555;DHT22;38455;52.710;6.502;2023-02-04T02:35:40;6.60;99.90
52555;DHT22;38455;52.710;6.502;2023-02-04T02:38:11;6.60;99.90
52555;DHT22;38455;52.710;6.502;2023-02-04T02:40:37;6.60;99.90
52555;DHT22;38455;52.710;6.502;2023-02-04T02:43:04;6.60;99.90
52555;DHT22;38455;52.710;6.502;2023-02-04T02:45:32;6.60;99.90
52555;DHT22;38455;52.710;6.502;2023-02-04T02:48:00;6.60;99.90
52555;DHT22;38455;52.710;6.502;2023-02-04T02:50:30;6.70;99.90
52555;DHT22;38455;52.710;6.502;2023-02-04T02:52:57;6.70;99.90
52555;DHT22;38455;52.710;6.502;2023-02-04T02:55:25;6.70;99.90
52555;DHT22;38455;52.710;6.502;2023-02-04T02:57:52;6.70;99.90
52555;DHT22;38455;52.710;6.502;2023-02-04T03:00:23;6.70;99.90
52555;DHT22;38455;52.710;6.502;2023-02-04T03:03:04;6.70;99.90
52555;DHT22;38455;52.710;6.502;2023-02-04T03:05:36;6.70;99.90
52555;DHT22;38455;52.710;6.502;2023-02-04T03:08:03;6.70;99.90
52555;DHT22;38455;52.710;6.502;2023-02-04T03:10:29;6.70;99.90
52555;DHT22;38455;52.710;6.502;2023-02-04T03:12:55;6.70;99.90
52555;DHT22;38455;52.710;6.502;2023-02-04T03:15:21;6.70;99.90
52555;DHT22;38455;52.710;6.502;2023-02-04T03:17:47;6.70;99.90
52555;DHT22;38455;52.710;6.502;2023-02-04T03:20:13;6.70;99.90
52555;DHT22;38455;52.710;6.502;2023-02-04T03:22:39;6.70;99.90
52555;DHT22;38455;52.710;6.502;2023-02-04T03:25:05;6.70;99.90
52555;DHT22;38455;52.710;6.502;2023-02-04T03:27:31;6.70;99.90
52555;DHT22;38455;52.710;6.502;2023-02-04T03:29:57;6.60;99.90
52555;DHT22;38455;52.710;6.502;2023-02-04T03:32:23;6.60;99.90
52555;DHT22;38455;52.710;6.502;2023-02-04T03:34:49;6.60;99.90
52555;DHT22;38455;52.710;6.502;2023-02-04T03:37:14;6.60;99.90
52555;DHT22;38455;52.710;6.502;2023-02-04T03:39:40;6.60;99.90
52555;DHT22;38455;52.710;6.502;2023-02-04T03:42:06;6.60;99.90
52555;DHT22;38455;52.710;6.502;2023-02-04T03:44:31;6.60;99.90
52555;DHT22;38455;52.710;6.502;2023-02-04T03:46:57;6.60;99.90
52555;DHT22;38455;52.710;6.502;2023-02-04T03:49:24;6.60;99.90
52555;DHT22;38455;52.710;6.502;2023-02-04T03:51:50;6.60;99.90
52555;DHT22;38455;52.710;6.502;2023-02-04T03:54:16;6.60;99.90
52555;DHT22;38455;52.710;6.502;2023-02-04T03:56:41;6.60;99.90
52555;DHT22;38455;52.710;6.502;2023-02-04T03:59:07;6.60;99.90
52555;DHT22;38455;52.710;6.502;2023-02-04T04:01:33;6.60;99.90
52555;DHT22;38455;52.710;6.502;2023-02-04T04:03:58;6.50;99.90
52555;DHT22;38455;52.710;6.502;2023-02-04T04:06:24;6.60;99.90
52555;DHT22;38455;52.710;6.502;2023-02-04T04:08:49;6.50;99.90
52555;DHT22;38455;52.710;6.502;2023-02-04T04:11:16;6.50;99.90
52555;DHT22;38455;52.710;6.502;2023-02-04T04:13:41;6.50;99.90
52555;DHT22;38455;52.710;6.502;2023-02-04T04:16:07;6.50;99.90
52555;DHT22;38455;52.710;6.502;2023-02-04T04:18:34;6.40;99.90
52555;DHT22;38455;52.710;6.502;2023-02-04T04:21:00;6.50;99.90
52555;DHT22;38455;52.710;6.502;2023-02-04T04:23:26;6.50;99.90
52555;DHT22;38455;52.710;6.502;2023-02-04T04:25:51;6.50;99.90
52555;DHT22;38455;52.710;6.502;2023-02-04T04:28:17;6.40;99.90
52555;DHT22;38455;52.710;6.502;2023-02-04T04:30:43;6.40;99.90
52555;DHT22;38455;52.710;6.502;2023-02-04T04:33:08;6.40;99.90
52555;DHT22;38455;52.710;6.502;2023-02-04T04:35:34;6.50;99.90
52555;DHT22;38455;52.710;6.502;2023-02-04T04:38:01;6.40;99.90
52555;DHT22;38455;52.710;6.502;2023-02-04T04:40:26;6.40;99.90
52555;DHT22;38455;52.710;6.502;2023-02-04T04:42:52;6.40;99.90
52555;DHT22;38455;52.710;6.502;2023-02-04T04:45:18;6.40;99.90
52555;DHT22;38455;52.710;6.502;2023-02-04T04:47:44;6.40;99.90
52555;DHT22;38455;52.710;6.502;2023-02-04T04:50:10;6.40;99.90
52555;DHT22;38455;52.710;6.502;2023-02-04T04:52:36;6.40;99.90
52555;DHT22;38455;52.710;6.502;2023-02-04T04:55:01;6.30;99.90
52555;DHT22;38455;52.710;6.502;2023-02-04T04:57:27;6.40;99.90
52555;DHT22;38455;52.710;6.502;2023-02-04T04:59:53;6.40;99.90
52555;DHT22;38455;52.710;6.502;2023-02-04T05:02:18;6.40;99.90
52555;DHT22;38455;52.710;6.502;2023-02-04T05:04:45;6.50;99.90
52555;DHT22;38455;52.710;6.502;2023-02-04T05:07:11;6.50;99.90
52555;DHT22;38455;52.710;6.502;2023-02-04T05:09:36;6.50;99.90
52555;DHT22;38455;52.710;6.502;2023-02-04T05:12:05;6.50;99.90
52555;DHT22;38455;52.710;6.502;2023-02-04T05:14:31;6.50;99.90
52555;DHT22;38455;52.710;6.502;2023-02-04T05:16:56;6.50;99.90
52555;DHT22;38455;52.710;6.502;2023-02-04T05:19:22;6.50;99.90
52555;DHT22;38455;52.710;6.502;2023-02-04T05:21:47;6.50;99.90
52555;DHT22;38455;52.710;6.502;2023-02-04T05:24:13;6.50;99.90
52555;DHT22;38455;52.710;6.502;2023-02-04T05:26:39;6.50;99.90
52555;DHT22;38455;52.710;6.502;2023-02-04T05:29:04;6.50;99.90
52555;DHT22;38455;52.710;6.502;2023-02-04T05:31:30;6.50;99.90
52555;DHT22;38455;52.710;6.502;2023-02-04T05:33:56;6.50;99.90
52555;DHT22;38455;52.710;6.502;2023-02-04T05:36:22;6.50;99.90
52555;DHT22;38455;52.710;6.502;2023-02-04T05:38:47;6.40;99.90
52555;DHT22;38455;52.710;6.502;2023-02-04T05:41:13;6.40;99.90
52555;DHT22;38455;52.710;6.502;2023-02-04T05:43:39;6.50;99.90
52555;DHT22;38455;52.710;6.502;2023-02-04T05:46:05;6.40;99.90
52555;DHT22;38455;52.710;6.502;2023-02-04T05:48:31;6.40;99.90
52555;DHT22;38455;52.710;6.502;2023-02-04T05:50:57;6.40;99.90
52555;DHT22;38455;52.710;6.502;2023-02-04T05:53:22;6.40;99.90
52555;DHT22;38455;52.710;6.502;2023-02-04T05:55:48;6.40;99.90
52555;DHT22;38455;52.710;6.502;2023-02-04T05:58:13;6.40;99.90
52555;DHT22;38455;52.710;6.502;2023-02-04T06:00:39;6.40;99.90
52555;DHT22;38455;52.710;6.502;2023-02-04T06:03:05;6.40;99.90
52555;DHT22;38455;52.710;6.502;2023-02-04T06:05:31;6.40;99.90
52555;DHT22;38455;52.710;6.502;2023-02-04T06:07:57;6.40;99.90
52555;DHT22;38455;52.710;6.502;2023-02-04T06:10:23;6.40;99.90
52555;DHT22;38455;52.710;6.502;2023-02-04T06:12:48;6.40;99.90
52555;DHT22;38455;52.710;6.502;2023-02-04T06:15:14;6.40;99.90
52555;DHT22;38455;52.710;6.502;2023-02-04T06:17:40;6.40;99.90
52555;DHT22;38455;52.710;6.502;2023-02-04T06:20:06;6.30;99.90
52555;DHT22;38455;52.710;6.502;2023-02-04T06:22:32;6.30;99.90
52555;DHT22;38455;52.710;6.502;2023-02-04T06:24:58;6.30;99.90
52555;DHT22;38455;52.710;6.502;2023-02-04T06:27:24;6.30;99.90
52555;DHT22;38455;52.710;6.502;2023-02-04T06:29:52;6.30;99.90
52555;DHT22;38455;52.710;6.502;2023-02-04T06:32:18;6.30;99.90
52555;DHT22;38455;52.710;6.502;2023-02-04T06:34:44;6.30;99.90
52555;DHT22;38455;52.710;6.502;2023-02-04T06:37:10;6.20;99.90
52555;DHT22;38455;52.710;6.502;2023-02-04T06:39:37;6.20;99.90
52555;DHT22;38455;52.710;6.502;2023-02-04T06:42:03;6.20;99.90
52555;DHT22;38455;52.710;6.502;2023-02-04T06:44:29;6.20;99.90
52555;DHT22;38455;52.710;6.502;2023-02-04T06:46:54;6.20;99.90
52555;DHT22;38455;52.710;6.502;2023-02-04T06:49:20;6.10;99.90
52555;DHT22;38455;52.710;6.502;2023-02-04T06:51:46;6.10;99.90
52555;DHT22;38455;52.710;6.502;2023-02-04T06:54:12;6.10;99.90
52555;DHT22;38455;52.710;6.502;2023-02-04T06:56:38;6.10;99.90
52555;DHT22;38455;52.710;6.502;2023-02-04T06:59:04;6.10;99.90
52555;DHT22;38455;52.710;6.502;2023-02-04T07:01:30;6.10;99.90
52555;DHT22;38455;52.710;6.502;2023-02-04T07:03:56;6.10;99.90
52555;DHT22;38455;52.710;6.502;2023-02-04T07:06:21;6.10;99.90
52555;DHT22;38455;52.710;6.502;2023-02-04T07:08:47;6.10;99.90
52555;DHT22;38455;52.710;6.502;2023-02-04T07:11:14;6.10;99.90
52555;DHT22;38455;52.710;6.502;2023-02-04T07:13:39;6.00;99.90
52555;DHT22;38455;52.710;6.502;2023-02-04T07:16:05;6.10;99.90
52555;DHT22;38455;52.710;6.502;2023-02-04T07:18:32;6.10;99.90
52555;DHT22;38455;52.710;6.502;2023-02-04T07:20:57;6.10;99.90
52555;DHT22;38455;52.710;6.502;2023-02-04T07:23:23;6.10;99.90
52555;DHT22;38455;52.710;6.502;2023-02-04T07:25:50;6.20;99.90
52555;DHT22;38455;52.710;6.502;2023-02-04T07:28:18;6.20;99.90
52555;DHT22;38455;52.710;6.502;2023-02-04T07:30:44;6.20;99.90
52555;DHT22;38455;52.710;6.502;2023-02-04T07:33:10;6.20;99.90
52555;DHT22;38455;52.710;6.502;2023-02-04T07:35:36;6.20;99.90
52555;DHT22;38455;52.710;6.502;2023-02-04T07:38:04;6.20;99.90
52555;DHT22;38455;52.710;6.502;2023-02-04T07:40:30;6.20;99.90
52555;DHT22;38455;52.710;6.502;2023-02-04T07:42:56;6.20;99.90
52555;DHT22;38455;52.710;6.502;2023-02-04T07:45:22;6.30;99.90
52555;DHT22;38455;52.710;6.502;2023-02-04T07:47:48;6.30;99.90
52555;DHT22;38455;52.710;6.502;2023-02-04T07:50:13;6.30;99.90
52555;DHT22;38455;52.710;6.502;2023-02-04T07:52:40;6.40;99.90
52555;DHT22;38455;52.710;6.502;2023-02-04T07:55:07;6.40;99.90
52555;DHT22;38455;52.710;6.502;2023-02-04T07:57:33;6.40;99.90
52555;DHT22;38455;52.710;6.502;2023-02-04T07:59:58;6.50;99.90
52555;DHT22;38455;52.710;6.502;2023-02-04T08:02:24;6.40;99.90
52555;DHT22;38455;52.710;6.502;2023-02-04T08:04:50;6.50;99.90
52555;DHT22;38455;52.710;6.502;2023-02-04T08:07:16;6.50;99.90
52555;DHT22;38455;52.710;6.502;2023-02-04T08:09:41;6.40;99.90
52555;DHT22;38455;52.710;6.502;2023-02-04T08:12:07;6.50;99.90
52555;DHT22;38455;52.710;6.502;2023-02-04T08:14:32;6.40;99.90
52555;DHT22;38455;52.710;6.502;2023-02-04T08:16:58;6.40;99.90
52555;DHT22;38455;52.710;6.502;2023-02-04T08:19:24;6.40;99.90
52555;DHT22;38455;52.710;6.502;2023-02-04T08:21:49;6.40;99.90
52555;DHT22;38455;52.710;6.502;2023-02-04T08:24:16;6.40;99.90
52555;DHT22;38455;52.710;6.502;2023-02-04T08:26:42;6.50;99.90
52555;DHT22;38455;52.710;6.502;2023-02-04T08:29:08;6.60;99.90
52555;DHT22;38455;52.710;6.502;2023-02-04T08:31:35;6.60;99.90
52555;DHT22;38455;52.710;6.502;2023-02-04T08:34:04;6.60;99.90
52555;DHT22;38455;52.710;6.502;2023-02-04T08:36:30;6.70;99.90
52555;DHT22;38455;52.710;6.502;2023-02-04T08:38:56;6.60;99.90
52555;DHT22;38455;52.710;6.502;2023-02-04T08:41:22;6.80;99.90
52555;DHT22;38455;52.710;6.502;2023-02-04T08:43:47;6.80;99.90
52555;DHT22;38455;52.710;6.502;2023-02-04T08:46:13;6.80;99.90
52555;DHT22;38455;52.710;6.502;2023-02-04T08:48:38;6.90;99.90
52555;DHT22;38455;52.710;6.502;2023-02-04T08:51:04;6.80;99.90
52555;DHT22;38455;52.710;6.502;2023-02-04T08:53:30;6.90;99.90
52555;DHT22;38455;52.710;6.502;2023-02-04T08:55:56;6.80;99.90
52555;DHT22;38455;52.710;6.502;2023-02-04T08:58:21;6.80;99.90
52555;DHT22;38455;52.710;6.502;2023-02-04T09:00:47;6.80;99.90
52555;DHT22;38455;52.710;6.502;2023-02-04T09:03:13;6.80;99.90
52555;DHT22;38455;52.710;6.502;2023-02-04T09:05:38;6.90;99.90
52555;DHT22;38455;52.710;6.502;2023-02-04T09:08:04;6.90;99.90
52555;DHT22;38455;52.710;6.502;2023-02-04T09:10:30;6.90;99.90
52555;DHT22;38455;52.710;6.502;2023-02-04T09:12:55;6.90;99.90
52555;DHT22;38455;52.710;6.502;2023-02-04T09:15:22;6.90;99.90
52555;DHT22;38455;52.710;6.502;2023-02-04T09:17:49;6.90;99.90
52555;DHT22;38455;52.710;6.502;2023-02-04T09:20:15;6.90;99.90
52555;DHT22;38455;52.710;6.502;2023-02-04T09:22:41;7.00;99.90
52555;DHT22;38455;52.710;6.502;2023-02-04T09:25:07;7.00;99.90
52555;DHT22;38455;52.710;6.502;2023-02-04T09:27:33;7.10;99.90
52555;DHT22;38455;52.710;6.502;2023-02-04T09:29:58;7.20;99.90
52555;DHT22;38455;52.710;6.502;2023-02-04T09:32:24;7.20;99.90
52555;DHT22;38455;52.710;6.502;2023-02-04T09:34:50;7.40;99.90
52555;DHT22;38455;52.710;6.502;2023-02-04T09:37:15;7.30;99.90
52555;DHT22;38455;52.710;6.502;2023-02-04T09:39:41;7.50;99.90
52555;DHT22;38455;52.710;6.502;2023-02-04T09:42:11;7.40;99.90
52555;DHT22;38455;52.710;6.502;2023-02-04T09:44:38;7.40;99.90
52555;DHT22;38455;52.710;6.502;2023-02-04T09:47:04;7.50;99.90
52555;DHT22;38455;52.710;6.502;2023-02-04T09:49:29;7.60;99.90
52555;DHT22;38455;52.710;6.502;2023-02-04T09:51:56;7.60;99.90
52555;DHT22;38455;52.710;6.502;2023-02-04T09:54:23;7.80;99.90
52555;DHT22;38455;52.710;6.502;2023-02-04T09:56:49;8.00;99.90
52555;DHT22;38455;52.710;6.502;2023-02-04T09:59:22;8.20;99.90
52555;DHT22;38455;52.710;6.502;2023-02-04T10:01:54;8.20;99.90
52555;DHT22;38455;52.710;6.502;2023-02-04T10:04:22;8.40;99.90
52555;DHT22;38455;52.710;6.502;2023-02-04T10:06:48;8.60;99.90
52555;DHT22;38455;52.710;6.502;2023-02-04T10:09:15;8.50;99.90
52555;DHT22;38455;52.710;6.502;2023-02-04T10:11:43;8.50;99.90
52555;DHT22;38455;52.710;6.502;2023-02-04T10:14:15;8.60;99.90
52555;DHT22;38455;52.710;6.502;2023-02-04T10:16:43;8.80;99.90
52555;DHT22;38455;52.710;6.502;2023-02-04T10:19:14;9.10;99.90
52555;DHT22;38455;52.710;6.502;2023-02-04T10:21:43;9.80;99.90
52555;DHT22;38455;52.710;6.502;2023-02-04T10:24:27;10.30;99.90
52555;DHT22;38455;52.710;6.502;2023-02-04T10:27:06;10.10;99.90
52555;DHT22;38455;52.710;6.502;2023-02-04T10:29:32;10.60;99.90
52555;DHT22;38455;52.710;6.502;2023-02-04T10:31:58;11.00;99.90
52555;DHT22;38455;52.710;6.502;2023-02-04T10:34:32;12.10;99.90
52555;DHT22;38455;52.710;6.502;2023-02-04T10:36:59;12.80;99.90
52555;DHT22;38455;52.710;6.502;2023-02-04T10:39:29;13.20;99.90
52555;DHT22;38455;52.710;6.502;2023-02-04T10:41:56;13.20;99.90
52555;DHT22;38455;52.710;6.502;2023-02-04T10:44:31;12.80;99.90
52555;DHT22;38455;52.710;6.502;2023-02-04T10:47:02;13.10;99.90
52555;DHT22;38455;52.710;6.502;2023-02-04T10:49:28;13.30;99.90
52555;DHT22;38455;52.710;6.502;2023-02-04T10:51:54;13.70;99.90
52555;DHT22;38455;52.710;6.502;2023-02-04T10:54:23;14.10;99.90
52555;DHT22;38455;52.710;6.502;2023-02-04T10:57:16;14.20;99.90
52555;DHT22;38455;52.710;6.502;2023-02-04T10:59:42;14.80;99.90
52555;DHT22;38455;52.710;6.502;2023-02-04T11:05:17;15.10;97.50
52555;DHT22;38455;52.710;6.502;2023-02-04T11:07:45;14.60;99.90
52555;DHT22;38455;52.710;6.502;2023-02-04T11:10:16;14.40;99.90
52555;DHT22;38455;52.710;6.502;2023-02-04T11:18:25;15.80;96.70
52555;DHT22;38455;52.710;6.502;2023-02-04T11:20:55;16.10;93.00
52555;DHT22;38455;52.710;6.502;2023-02-04T11:26:05;17.00;93.00
52555;DHT22;38455;52.710;6.502;2023-02-04T11:34:06;17.40;90.00
52555;DHT22;38455;52.710;6.502;2023-02-04T11:36:32;17.20;90.70
52555;DHT22;38455;52.710;6.502;2023-02-04T11:39:07;17.00;90.90
52555;DHT22;38455;52.710;6.502;2023-02-04T11:41:37;16.90;87.50
52555;DHT22;38455;52.710;6.502;2023-02-04T11:44:03;17.00;91.30
52555;DHT22;38455;52.710;6.502;2023-02-04T11:46:29;17.30;91.40
52555;DHT22;38455;52.710;6.502;2023-02-04T11:48:56;17.20;90.40
52555;DHT22;38455;52.710;6.502;2023-02-04T11:51:34;17.40;88.10
52555;DHT22;38455;52.710;6.502;2023-02-04T11:54:00;17.90;88.40
52555;DHT22;38455;52.710;6.502;2023-02-04T11:56:28;18.30;89.30
52555;DHT22;38455;52.710;6.502;2023-02-04T11:58:56;18.10;84.30
52555;DHT22;38455;52.710;6.502;2023-02-04T12:01:30;18.60;86.60
52555;DHT22;38455;52.710;6.502;2023-02-04T12:03:58;18.90;82.50
52555;DHT22;38455;52.710;6.502;2023-02-04T12:06:31;18.40;84.50
52555;DHT22;38455;52.710;6.502;2023-02-04T12:11:51;17.50;81.20
52555;DHT22;38455;52.710;6.502;2023-02-04T12:14:18;16.70;81.90
52555;DHT22;38455;52.710;6.502;2023-02-04T12:16:45;16.00;86.30
52555;DHT22;38455;52.710;6.502;2023-02-04T12:19:12;15.60;87.80
52555;DHT22;38455;52.710;6.502;2023-02-04T12:21:38;15.40;87.70
52555;DHT22;38455;52.710;6.502;2023-02-04T12:24:04;14.90;90.30
52555;DHT22;38455;52.710;6.502;2023-02-04T12:26:30;14.70;91.00
52555;DHT22;38455;52.710;6.502;2023-02-04T12:28:55;14.20;91.20
52555;DHT22;38455;52.710;6.502;2023-02-04T12:31:21;14.30;91.60
52555;DHT22;38455;52.710;6.502;2023-02-04T12:33:47;14.30;91.70
52555;DHT22;38455;52.710;6.502;2023-02-04T12:36:13;14.30;92.00
52555;DHT22;38455;52.710;6.502;2023-02-04T12:38:38;14.30;92.30
52555;DHT22;38455;52.710;6.502;2023-02-04T12:41:05;14.10;92.40
52555;DHT22;38455;52.710;6.502;2023-02-04T12:43:30;14.00;92.90
52555;DHT22;38455;52.710;6.502;2023-02-04T12:45:56;13.90;93.30
52555;DHT22;38455;52.710;6.502;2023-02-04T12:48:21;13.60;93.10
52555;DHT22;38455;52.710;6.502;2023-02-04T12:50:47;13.60;93.60
52555;DHT22;38455;52.710;6.502;2023-02-04T12:53:13;13.50;93.80
52555;DHT22;38455;52.710;6.502;2023-02-04T12:55:38;13.50;94.20
52555;DHT22;38455;52.710;6.502;2023-02-04T12:58:04;13.20;94.10
52555;DHT22;38455;52.710;6.502;2023-02-04T13:00:29;13.30;94.70
52555;DHT22;38455;52.710;6.502;2023-02-04T13:02:55;13.30;94.90
52555;DHT22;38455;52.710;6.502;2023-02-04T13:05:23;12.90;94.90
52555;DHT22;38455;52.710;6.502;2023-02-04T13:07:49;12.60;95.40
52555;DHT22;38455;52.710;6.502;2023-02-04T13:10:16;12.70;96.50
52555;DHT22;38455;52.710;6.502;2023-02-04T13:12:42;12.50;96.20
52555;DHT22;38455;52.710;6.502;2023-02-04T13:15:08;12.50;96.80
52555;DHT22;38455;52.710;6.502;2023-02-04T13:17:34;12.30;97.30
52555;DHT22;38455;52.710;6.502;2023-02-04T13:20:00;12.20;98.10
52555;DHT22;38455;52.710;6.502;2023-02-04T13:22:26;12.20;98.70
52555;DHT22;38455;52.710;6.502;2023-02-04T13:24:51;12.00;99.20
52555;DHT22;38455;52.710;6.502;2023-02-04T13:27:17;11.90;99.90
52555;DHT22;38455;52.710;6.502;2023-02-04T13:29:43;11.40;99.90
52555;DHT22;38455;52.710;6.502;2023-02-04T13:32:09;11.50;99.90
52555;DHT22;38455;52.710;6.502;2023-02-04T13:34:35;11.40;99.90
52555;DHT22;38455;52.710;6.502;2023-02-04T13:37:00;11.40;99.90
52555;DHT22;38455;52.710;6.502;2023-02-04T13:39:26;11.30;99.90
52555;DHT22;38455;52.710;6.502;2023-02-04T13:41:51;11.20;99.90
52555;DHT22;38455;52.710;6.502;2023-02-04T13:44:17;11.20;99.90
52555;DHT22;38455;52.710;6.502;2023-02-04T13:46:43;11.10;99.90
52555;DHT22;38455;52.710;6.502;2023-02-04T13:49:08;10.90;99.90
52555;DHT22;38455;52.710;6.502;2023-02-04T13:51:34;10.90;99.90
52555;DHT22;38455;52.710;6.502;2023-02-04T13:54:00;10.90;99.90
52555;DHT22;38455;52.710;6.502;2023-02-04T13:56:26;10.80;99.90
52555;DHT22;38455;52.710;6.502;2023-02-04T13:58:52;10.90;99.90
52555;DHT22;38455;52.710;6.502;2023-02-04T14:01:18;10.90;99.90
52555;DHT22;38455;52.710;6.502;2023-02-04T14:03:44;10.80;99.90
52555;DHT22;38455;52.710;6.502;2023-02-04T14:06:11;10.80;99.90
52555;DHT22;38455;52.710;6.502;2023-02-04T14:08:36;10.80;99.90
52555;DHT22;38455;52.710;6.502;2023-02-04T14:11:02;10.80;99.90
52555;DHT22;38455;52.710;6.502;2023-02-04T14:13:28;10.60;99.90
52555;DHT22;38455;52.710;6.502;2023-02-04T14:15:53;10.50;99.90
52555;DHT22;38455;52.710;6.502;2023-02-04T14:18:19;10.30;99.90
52555;DHT22;38455;52.710;6.502;2023-02-04T14:20:45;10.20;99.90
52555;DHT22;38455;52.710;6.502;2023-02-04T14:23:11;10.20;99.90
52555;DHT22;38455;52.710;6.502;2023-02-04T14:25:37;10.10;99.90
52555;DHT22;38455;52.710;6.502;2023-02-04T14:28:03;10.10;99.90
52555;DHT22;38455;52.710;6.502;2023-02-04T14:30:30;10.10;99.90
52555;DHT22;38455;52.710;6.502;2023-02-04T14:32:57;10.00;99.90
52555;DHT22;38455;52.710;6.502;2023-02-04T14:35:24;10.20;99.90
52555;DHT22;38455;52.710;6.502;2023-02-04T14:37:50;10.40;99.90
52555;DHT22;38455;52.710;6.502;2023-02-04T14:40:17;10.70;99.90
52555;DHT22;38455;52.710;6.502;2023-02-04T14:42:44;10.80;99.90
52555;DHT22;38455;52.710;6.502;2023-02-04T14:45:11;11.00;99.90
52555;DHT22;38455;52.710;6.502;2023-02-04T14:47:38;11.20;99.90
52555;DHT22;38455;52.710;6.502;2023-02-04T14:50:06;11.30;99.90
52555;DHT22;38455;52.710;6.502;2023-02-04T14:52:32;11.20;99.90
52555;DHT22;38455;52.710;6.502;2023-02-04T14:54:58;11.20;99.90
52555;DHT22;38455;52.710;6.502;2023-02-04T14:57:24;11.10;99.90
52555;DHT22;38455;52.710;6.502;2023-02-04T14:59:50;11.00;99.90
52555;DHT22;38455;52.710;6.502;2023-02-04T15:02:16;11.20;99.90
52555;DHT22;38455;52.710;6.502;2023-02-04T15:04:44;11.20;99.90
52555;DHT22;38455;52.710;6.502;2023-02-04T15:07:11;11.20;99.90
52555;DHT22;38455;52.710;6.502;2023-02-04T15:09:37;11.20;99.90
52555;DHT22;38455;52.710;6.502;2023-02-04T15:12:04;10.90;99.90
52555;DHT22;38455;52.710;6.502;2023-02-04T15:14:29;10.60;99.90
52555;DHT22;38455;52.710;6.502;2023-02-04T15:16:55;10.40;99.90
52555;DHT22;38455;52.710;6.502;2023-02-04T15:19:21;10.30;99.90
52555;DHT22;38455;52.710;6.502;2023-02-04T15:21:48;10.20;99.90
52555;DHT22;38455;52.710;6.502;2023-02-04T15:24:14;10.00;99.90
52555;DHT22;38455;52.710;6.502;2023-02-04T15:26:39;9.90;99.90
52555;DHT22;38455;52.710;6.502;2023-02-04T15:29:05;9.90;99.90
52555;DHT22;38455;52.710;6.502;2023-02-04T15:31:31;9.80;99.90
52555;DHT22;38455;52.710;6.502;2023-02-04T15:33:56;9.80;99.90
52555;DHT22;38455;52.710;6.502;2023-02-04T15:36:22;9.60;99.90
52555;DHT22;38455;52.710;6.502;2023-02-04T15:38:48;9.50;99.90
52555;DHT22;38455;52.710;6.502;2023-02-04T15:41:13;9.40;99.90
52555;DHT22;38455;52.710;6.502;2023-02-04T15:43:39;9.20;99.90
52555;DHT22;38455;52.710;6.502;2023-02-04T15:46:05;9.10;99.90
52555;DHT22;38455;52.710;6.502;2023-02-04T15:48:30;8.90;99.90
52555;DHT22;38455;52.710;6.502;2023-02-04T15:50:56;8.80;99.90
52555;DHT22;38455;52.710;6.502;2023-02-04T15:53:22;8.70;99.90
52555;DHT22;38455;52.710;6.502;2023-02-04T15:55:48;8.60;99.90
52555;DHT22;38455;52.710;6.502;2023-02-04T15:58:13;8.50;99.90
52555;DHT22;38455;52.710;6.502;2023-02-04T16:00:40;8.50;99.90